CST,Max TemperatureF,Mean TemperatureF,Min TemperatureF,Max Dew PointF,MeanDew PointF,Min DewpointF,Max Humidity, Mean Humidity, Min Humidity, Max Sea Level PressureIn, Mean Sea Level PressureIn, Min Sea Level PressureIn, Max VisibilityMiles, Mean VisibilityMiles, Min VisibilityMiles, Max Wind SpeedMPH, Mean Wind SpeedMPH, Max Gust SpeedMPH,PrecipitationIn, CloudCover, Events, WindDirDegrees
2013-2-1,7,-1,-10,2,-7,-18,83,71,58,30.37,30.21,30.01,10,7,2,23,11,28,0.06,5,Snow,213
2013-2-2,12,9,6,7,3,0,83,75,66,30.20,30.09,29.93,10,6,1,14,6,15,0.04,7,Snow,277
2013-2-3,15,11,6,10,7,0,88,75,61,30.13,29.99,29.89,10,5,1,25,11,30,0.09,8,Snow,312
2013-2-4,18,11,3,9,4,-2,84,67,49,30.08,29.97,29.82,10,7,2,17,8,21,0.03,4,Snow,51
2013-2-5,30,19,8,24,17,5,88,78,68,30.13,29.82,29.67,10,5,0,26,15,31,0.17,7,Fog-Snow,259
2013-2-6,35,21,6,30,17,3,92,81,69,30.15,30.06,29.95,8,5,1,23,10,28,T,7,,182
2013-2-7,34,30,25,29,24,19,92,87,81,30.25,30.05,29.92,10,3,0,21,12,25,T,7,Fog-Rain-Snow,14
2013-2-8,25,24,22,20,18,14,81,76,71,30.40,30.34,30.23,10,10,9,20,8,25,0.00,8,,89
2013-2-9,30,27,24,25,23,20,88,83,78,30.30,30.10,29.96,9,5,2,29,19,35,0.00,8,,163
2013-2-10,37,34,30,36,31,25,92,85,78,29.96,29.47,29.25,10,4,0,29,15,37,0.31,8,Fog-Rain-Snow,147
2013-2-11,34,27,20,30,20,12,92,83,73,30.08,29.74,29.27,10,5,1,32,24,41,0.02,8,Snow,294
2013-2-12,33,25,17,26,19,11,85,76,66,30.10,29.98,29.86,10,10,7,23,12,26,T,3,Snow,239
2013-2-13,37,28,19,32,25,16,89,82,74,29.85,29.72,29.56,10,9,8,17,9,20,0.01,6,Rain,236
2013-2-14,36,27,17,31,23,6,89,70,50,30.18,29.84,29.55,10,6,1,28,15,32,0.04,7,Snow,312
2013-2-15,17,12,7,6,3,0,80,70,59,30.34,30.28,30.19,10,10,5,21,13,24,0.00,1,,306
2013-2-16,20,12,4,7,3,-2,86,71,56,30.29,30.21,30.15,10,10,7,12,5,15,T,3,,322
2013-2-17,31,21,10,20,14,3,80,72,63,30.17,29.97,29.70,10,10,10,28,17,36,0.00,1,,155
2013-2-18,35,21,7,30,16,1,85,74,63,29.78,29.63,29.53,10,6,1,32,20,38,0.02,6,Snow,286
2013-2-19,7,2,-3,1,-4,-10,87,76,65,30.38,30.02,29.72,10,3,1,31,22,37,T,6,Snow,305
2013-2-20,17,6,-5,4,-2,-12,76,68,59,30.49,30.45,30.33,10,10,10,14,8,16,0.00,0,,354
2013-2-21,20,13,6,16,8,1,80,71,62,30.45,30.25,29.99,10,8,1,22,11,28,0.05,2,Snow,70
2013-2-22,28,24,20,20,17,16,84,76,68,29.99,29.87,29.81,10,4,0,18,9,23,0.36,8,Fog-Snow,29
2013-2-23,23,14,4,16,12,2,91,82,73,30.02,29.91,29.83,10,6,1,16,9,18,T,6,Snow,251
2013-2-24,29,16,2,20,13,-1,96,80,63,30.15,30.10,30.02,10,9,6,10,4,10,0.00,3,,153
2013-2-25,37,30,22,26,23,19,88,76,64,30.14,30.08,30.00,5,3,0,9,3,23,0.01,6,Fog-Snow,50
2013-2-26,34,29,23,25,22,19,88,76,64,30.03,29.90,29.78,10,6,2,25,14,30,0.00,2,,26
2013-2-27,34,32,29,27,24,21,85,75,64,29.98,29.85,29.77,10,7,1,25,17,31,0.01,8,Snow,2
2013-2-28,30,28,25,25,20,16,75,69,63,30.21,30.11,29.94,10,10,6,17,12,21,T,8,Snow,354